createdAt,value
2023-01-20T00:01:27.281Z,0.60
2023-01-20T00:03:55.448Z,0.47
2023-01-20T00:06:23.166Z,1.00
2023-01-20T00:08:53.856Z,2.15
2023-01-20T00:11:21.344Z,0.45
2023-01-20T00:13:48.820Z,0.70
2023-01-20T00:16:16.246Z,0.60
2023-01-20T00:18:43.433Z,0.50
2023-01-20T00:21:12.102Z,0.60
2023-01-20T00:23:39.788Z,0.60
2023-01-20T00:26:11.217Z,0.43
2023-01-20T00:28:38.539Z,0.47
2023-01-20T00:31:14.970Z,0.50
2023-01-20T00:33:42.389Z,0.70
2023-01-20T00:36:10.151Z,0.60
2023-01-20T00:38:37.310Z,0.50
2023-01-20T00:41:05.201Z,0.32
2023-01-20T00:43:32.396Z,0.52
2023-01-20T00:45:59.693Z,0.30
2023-01-20T00:48:26.956Z,0.73
2023-01-20T00:50:54.075Z,0.50
2023-01-20T00:53:21.343Z,0.63
2023-01-20T00:55:48.541Z,0.80
2023-01-20T00:58:15.869Z,0.40
2023-01-20T01:00:43.325Z,0.40
2023-01-20T01:03:10.623Z,0.35
2023-01-20T01:05:37.844Z,0.35
2023-01-20T01:08:05.375Z,0.40
2023-01-20T01:10:32.656Z,0.32
2023-01-20T01:13:03.884Z,1.73
2023-01-20T01:15:31.067Z,0.40
2023-01-20T01:17:58.856Z,0.50
2023-01-20T01:20:26.563Z,0.55
2023-01-20T01:22:53.786Z,0.60
2023-01-20T01:25:21.181Z,0.65
2023-01-20T01:27:48.506Z,0.55
2023-01-20T01:30:15.719Z,0.50
2023-01-20T01:32:42.917Z,0.40
2023-01-20T01:35:10.215Z,0.50
2023-01-20T01:37:37.417Z,0.60
2023-01-20T01:40:04.937Z,0.40
2023-01-20T01:42:32.069Z,0.52
2023-01-20T01:45:12.282Z,0.32
2023-01-20T01:47:45.164Z,0.30
2023-01-20T01:52:42.020Z,0.30
2023-01-20T01:55:09.723Z,0.30
2023-01-20T01:57:36.926Z,0.47
2023-01-20T02:00:07.028Z,0.38
2023-01-20T02:02:36.012Z,0.40
2023-01-20T02:05:03.405Z,0.38
2023-01-20T02:07:33.250Z,0.77
2023-01-20T02:10:01.153Z,0.45
2023-01-20T02:12:29.365Z,0.55
2023-01-20T02:14:57.898Z,0.50
2023-01-20T02:17:33.193Z,0.60
2023-01-20T02:20:15.669Z,0.30
2023-01-20T02:23:01.821Z,0.70
2023-01-20T02:25:44.202Z,0.50
2023-01-20T02:28:11.356Z,0.70
2023-01-20T02:30:59.178Z,0.50
2023-01-20T02:33:29.496Z,0.50
2023-01-20T02:35:59.335Z,0.40
2023-01-20T02:38:33.722Z,1.02
2023-01-20T02:41:18.934Z,0.63
2023-01-20T02:43:50.717Z,0.60
2023-01-20T02:46:17.895Z,2.63
2023-01-20T02:49:01.713Z,0.57
2023-01-20T02:51:33.701Z,0.32
2023-01-20T02:54:03.190Z,0.47
2023-01-20T02:56:32.460Z,0.32
2023-01-20T02:59:11.383Z,0.50
2023-01-20T03:01:48.795Z,0.47
2023-01-20T03:04:17.591Z,0.75
2023-01-20T03:06:48.013Z,0.57
2023-01-20T03:09:19.339Z,0.65
2023-01-20T03:11:51.884Z,0.50
2023-01-20T03:16:48.246Z,0.60
2023-01-20T03:19:16.419Z,0.57
2023-01-20T03:21:43.834Z,0.60
2023-01-20T03:24:11.431Z,0.60
2023-01-20T03:26:39.180Z,0.28
2023-01-20T03:29:07.640Z,0.55
2023-01-20T03:31:45.630Z,0.22
2023-01-20T03:34:15.525Z,0.57
2023-01-20T03:36:43.932Z,0.40
2023-01-20T03:39:11.143Z,0.40
2023-01-20T03:41:50.787Z,0.22
2023-01-20T03:44:28.603Z,0.95
2023-01-20T03:47:08.709Z,0.35
2023-01-20T03:49:35.851Z,0.50
2023-01-20T03:52:05.300Z,0.35
2023-01-20T03:54:35.090Z,0.28
2023-01-20T03:57:07.143Z,0.88
2023-01-20T03:59:35.634Z,0.50
2023-01-20T04:02:04.751Z,0.40
2023-01-20T04:04:34.141Z,0.40
2023-01-20T04:07:01.773Z,0.20
2023-01-20T04:09:31.208Z,1.05
2023-01-20T04:11:59.458Z,0.60
2023-01-20T04:14:26.774Z,0.60
2023-01-20T04:16:55.809Z,0.40
2023-01-20T04:19:23.399Z,0.35
2023-01-20T04:21:53.908Z,0.40
2023-01-20T04:24:32.017Z,0.55
2023-01-20T04:26:59.170Z,0.30
2023-01-20T04:29:26.330Z,1.08
2023-01-20T04:31:59.253Z,0.50
2023-01-20T04:34:26.477Z,0.50
2023-01-20T04:36:53.654Z,0.47
2023-01-20T04:39:20.828Z,0.40
2023-01-20T04:41:48.721Z,0.98
2023-01-20T04:44:15.923Z,0.28
2023-01-20T04:46:43.189Z,0.47
2023-01-20T04:49:11.130Z,0.50
2023-01-20T04:51:38.290Z,0.52
2023-01-20T04:54:05.545Z,0.60
2023-01-20T04:56:33.009Z,0.50
2023-01-20T04:59:00.233Z,0.32
2023-01-20T05:01:27.564Z,0.52
2023-01-20T05:03:54.753Z,0.50
2023-01-20T05:06:21.987Z,0.60
2023-01-20T05:08:49.247Z,0.32
2023-01-20T05:11:16.464Z,0.50
2023-01-20T05:13:43.708Z,0.40
2023-01-20T05:16:11.507Z,0.60
2023-01-20T05:18:39.046Z,0.85
2023-01-20T05:21:08.753Z,0.32
2023-01-20T05:23:36.149Z,0.30
2023-01-20T05:26:03.300Z,0.30
2023-01-20T05:28:30.458Z,1.85
2023-01-20T05:30:57.696Z,0.45
2023-01-20T05:33:24.933Z,0.30
2023-01-20T05:35:53.316Z,0.20
2023-01-20T05:38:22.292Z,0.35
2023-01-20T05:40:49.439Z,0.30
2023-01-20T05:43:16.628Z,0.68
2023-01-20T05:45:43.793Z,0.68
2023-01-20T05:48:10.956Z,0.30
2023-01-20T05:50:38.182Z,0.30
2023-01-20T05:53:05.479Z,0.52
2023-01-20T05:55:32.771Z,0.57
2023-01-20T05:58:02.425Z,0.60
2023-01-20T06:00:29.742Z,0.63
2023-01-20T06:02:57.024Z,0.30
2023-01-20T06:05:24.330Z,0.40
2023-01-20T06:07:51.517Z,0.50
2023-01-20T06:10:18.815Z,1.02
2023-01-20T06:12:51.572Z,0.60
2023-01-20T06:15:18.814Z,0.30
2023-01-20T06:17:45.971Z,0.80
2023-01-20T06:20:13.199Z,0.40
2023-01-20T06:22:40.412Z,0.60
2023-01-20T06:25:07.941Z,0.20
2023-01-20T06:27:35.197Z,0.40
2023-01-20T06:30:02.485Z,0.40
2023-01-20T06:32:29.639Z,0.50
2023-01-20T06:34:56.916Z,0.30
2023-01-20T06:37:24.099Z,0.95
2023-01-20T06:39:51.430Z,0.32
2023-01-20T06:42:18.591Z,0.60
2023-01-20T06:44:45.828Z,0.60
2023-01-20T06:47:12.989Z,0.60
2023-01-20T06:49:40.123Z,0.40
2023-01-20T06:52:08.338Z,0.63
2023-01-20T06:54:35.572Z,0.55
2023-01-20T06:57:02.757Z,0.30
2023-01-20T06:59:29.920Z,0.85
2023-01-20T07:01:57.195Z,0.30
2023-01-20T07:04:24.412Z,0.30
2023-01-20T07:06:51.584Z,0.55
2023-01-20T07:09:18.845Z,0.30
2023-01-20T07:11:46.111Z,0.43
2023-01-20T07:14:13.322Z,0.65
2023-01-20T07:16:40.625Z,0.40
2023-01-20T07:19:07.784Z,0.47
2023-01-20T07:21:35.061Z,0.40
2023-01-20T07:24:02.445Z,0.50
2023-01-20T07:26:29.805Z,0.35
2023-01-20T07:28:58.633Z,0.43
2023-01-20T07:31:26.863Z,0.50
2023-01-20T07:33:57.022Z,0.30
2023-01-20T07:36:24.764Z,0.38
2023-01-20T07:38:52.410Z,0.50
2023-01-20T07:41:20.309Z,0.40
2023-01-20T07:43:48.523Z,0.22
2023-01-20T07:46:15.764Z,0.50
2023-01-20T07:48:43.332Z,0.40
2023-01-20T07:51:11.911Z,0.47
2023-01-20T07:53:40.191Z,0.60
2023-01-20T07:56:08.488Z,0.68
2023-01-20T07:58:35.700Z,0.73
2023-01-20T08:01:19.627Z,0.40
2023-01-20T08:03:47.262Z,0.50
2023-01-20T08:06:15.429Z,0.40
2023-01-20T08:08:43.172Z,0.40
2023-01-20T08:11:12.378Z,0.38
2023-01-20T08:13:39.749Z,0.30
2023-01-20T08:16:08.279Z,0.40
2023-01-20T08:18:36.502Z,0.50
2023-01-20T08:21:06.488Z,0.52
2023-01-20T08:23:34.253Z,0.60
2023-01-20T08:26:02.912Z,0.28
2023-01-20T08:28:30.533Z,0.52
2023-01-20T08:31:05.320Z,0.40
2023-01-20T08:33:32.681Z,1.60
2023-01-20T08:36:20.087Z,0.55
2023-01-20T08:38:47.881Z,0.55
2023-01-20T08:41:19.783Z,0.52
2023-01-20T08:43:46.986Z,0.45
2023-01-20T08:46:16.168Z,0.47
2023-01-20T08:48:43.899Z,0.80
2023-01-20T08:51:15.871Z,0.43
2023-01-20T08:53:43.705Z,0.60
2023-01-20T08:56:11.484Z,0.50
2023-01-20T08:58:39.125Z,0.60
2023-01-20T09:01:10.295Z,0.50
2023-01-20T09:03:39.616Z,0.50
2023-01-20T09:06:07.916Z,0.70
2023-01-20T09:08:35.611Z,0.63
2023-01-20T09:11:05.626Z,0.75
2023-01-20T09:13:32.973Z,0.50
2023-01-20T09:16:00.328Z,0.40
2023-01-20T09:18:28.048Z,0.45
2023-01-20T09:20:55.224Z,0.82
2023-01-20T09:23:22.519Z,0.32
2023-01-20T09:25:49.802Z,0.25
2023-01-20T09:28:17.262Z,0.80
2023-01-20T09:30:44.707Z,0.52
2023-01-20T09:33:12.158Z,0.40
2023-01-20T09:35:39.476Z,0.63
2023-01-20T09:38:25.589Z,0.40
2023-01-20T09:41:25.305Z,0.60
2023-01-20T09:44:10.893Z,0.40
2023-01-20T09:47:10.021Z,0.40
2023-01-20T09:50:02.912Z,0.63
2023-01-20T09:52:52.580Z,0.85
2023-01-20T09:55:22.252Z,0.50
2023-01-20T09:57:55.416Z,0.60
2023-01-20T10:00:24.042Z,1.00
2023-01-20T10:03:00.243Z,0.70
2023-01-20T10:05:32.945Z,0.57
2023-01-20T10:08:03.848Z,0.50
2023-01-20T10:10:31.034Z,0.60
2023-01-20T10:13:07.029Z,0.38
2023-01-20T10:15:36.533Z,0.43
2023-01-20T10:18:03.690Z,0.70
2023-01-20T10:20:33.929Z,0.63
2023-01-20T10:23:04.685Z,0.65
2023-01-20T10:25:39.502Z,0.60
2023-01-20T10:28:14.878Z,0.50
2023-01-20T10:30:43.251Z,0.60
2023-01-20T10:33:11.888Z,0.40
2023-01-20T10:35:52.080Z,0.70
2023-01-20T10:38:26.359Z,0.40
2023-01-20T10:40:57.508Z,0.73
2023-01-20T10:43:24.757Z,0.82
2023-01-20T10:45:55.023Z,0.65
2023-01-20T10:49:00.833Z,0.45
2023-01-20T10:51:27.944Z,0.50
2023-01-20T10:54:02.783Z,0.68
2023-01-20T10:56:36.180Z,0.60
2023-01-20T10:59:13.623Z,0.40
2023-01-20T11:01:41.417Z,0.95
2023-01-20T11:04:16.105Z,0.70
2023-01-20T11:06:43.556Z,0.80
2023-01-20T11:09:39.486Z,0.70
2023-01-20T11:12:11.418Z,0.70
2023-01-20T11:14:39.048Z,0.75
2023-01-20T11:17:07.950Z,0.90
2023-01-20T11:19:57.697Z,0.82
2023-01-20T11:22:28.744Z,0.90
2023-01-20T11:24:58.940Z,1.00
2023-01-20T11:27:33.092Z,1.00
2023-01-20T11:30:01.735Z,1.20
2023-01-20T11:32:30.149Z,0.68
2023-01-20T11:34:58.027Z,1.25
2023-01-20T11:37:26.599Z,0.90
2023-01-20T11:39:53.805Z,1.15
2023-01-20T11:42:29.092Z,2.15
2023-01-20T11:45:19.863Z,2.13
2023-01-20T11:47:59.225Z,1.90
2023-01-20T11:50:46.629Z,1.23
2023-01-20T11:53:21.500Z,1.20
2023-01-20T11:55:53.322Z,1.05
2023-01-20T11:58:22.658Z,1.17
2023-01-20T12:00:50.838Z,1.20
2023-01-20T12:03:45.012Z,1.30
2023-01-20T12:06:12.173Z,1.10
2023-01-20T12:08:54.824Z,1.10
2023-01-20T12:11:30.312Z,1.27
2023-01-20T12:14:19.052Z,1.30
2023-01-20T12:16:48.902Z,1.17
2023-01-20T12:19:19.134Z,1.30
2023-01-20T12:21:48.987Z,1.63
2023-01-20T12:24:54.823Z,1.17
2023-01-20T12:27:24.595Z,0.70
2023-01-20T12:29:54.365Z,1.10
2023-01-20T12:32:21.629Z,2.85
2023-01-20T12:34:48.850Z,1.00
2023-01-20T12:37:36.334Z,0.88
2023-01-20T12:40:16.619Z,1.05
2023-01-20T12:42:47.008Z,0.73
2023-01-20T12:45:14.128Z,1.33
2023-01-20T12:47:50.365Z,0.90
2023-01-20T12:50:36.196Z,0.57
2023-01-20T12:53:16.916Z,0.65
2023-01-20T12:55:52.626Z,0.52
2023-01-20T12:58:22.869Z,0.70
2023-01-20T13:01:08.942Z,1.02
2023-01-20T13:03:39.009Z,0.98
2023-01-20T13:06:09.106Z,0.60
2023-01-20T13:08:48.532Z,0.52
2023-01-20T13:11:28.947Z,0.90
2023-01-20T13:14:01.977Z,0.88
2023-01-20T13:16:29.157Z,0.77
2023-01-20T13:18:56.347Z,0.80
2023-01-20T13:21:23.634Z,0.98
2023-01-20T13:23:51.455Z,0.80
2023-01-20T13:26:19.201Z,1.45
2023-01-20T13:28:53.281Z,0.90
2023-01-20T13:31:31.340Z,0.90
2023-01-20T13:34:17.624Z,0.60
2023-01-20T13:37:07.158Z,0.90
2023-01-20T13:39:40.802Z,0.77
2023-01-20T13:42:43.728Z,0.93
2023-01-20T13:45:14.450Z,1.10
2023-01-20T13:47:50.534Z,0.88
2023-01-20T13:50:25.217Z,1.02
2023-01-20T13:52:52.521Z,0.95
2023-01-20T13:55:38.321Z,1.30
2023-01-20T13:58:05.482Z,0.88
2023-01-20T14:00:32.715Z,0.80
2023-01-20T14:03:12.477Z,0.77
2023-01-20T14:05:40.507Z,0.85
2023-01-20T14:08:14.213Z,1.23
2023-01-20T14:10:41.917Z,0.70
2023-01-20T14:13:10.225Z,0.77
2023-01-20T14:15:38.409Z,1.42
2023-01-20T14:18:06.202Z,0.93
2023-01-20T14:20:33.476Z,1.00
2023-01-20T14:23:19.314Z,0.75
2023-01-20T14:25:56.932Z,1.05
2023-01-20T14:28:24.268Z,1.13
2023-01-20T14:31:05.383Z,0.90
2023-01-20T14:33:32.759Z,0.80
2023-01-20T14:36:00.084Z,0.85
2023-01-20T14:38:27.483Z,0.95
2023-01-20T14:40:54.647Z,2.33
2023-01-20T14:43:22.962Z,2.10
2023-01-20T14:45:53.673Z,0.93
2023-01-20T14:48:33.347Z,1.13
2023-01-20T14:51:04.189Z,1.05
2023-01-20T14:53:31.641Z,1.00
2023-01-20T14:56:03.244Z,0.90
2023-01-20T14:58:30.647Z,2.17
2023-01-20T15:01:00.687Z,0.75
2023-01-20T15:03:28.545Z,0.88
2023-01-20T15:05:58.196Z,0.70
2023-01-20T15:08:26.297Z,1.13
2023-01-20T15:11:12.863Z,0.98
2023-01-20T15:13:40.725Z,1.20
2023-01-20T15:16:08.993Z,1.08
2023-01-20T15:18:36.261Z,1.17
2023-01-20T15:21:17.212Z,0.70
2023-01-20T15:23:51.279Z,1.20
2023-01-20T15:26:24.625Z,0.90
2023-01-20T15:28:51.847Z,1.05
2023-01-20T15:31:19.174Z,1.23
2023-01-20T15:33:46.473Z,1.10
2023-01-20T15:36:22.811Z,1.48
2023-01-20T15:38:50.733Z,1.20
2023-01-20T15:41:18.046Z,1.20
2023-01-20T15:43:45.584Z,1.00
2023-01-20T15:46:13.463Z,1.08
2023-01-20T15:48:40.996Z,1.15
2023-01-20T15:51:12.754Z,1.30
2023-01-20T15:53:40.007Z,1.10
2023-01-20T15:56:07.381Z,1.00
2023-01-20T15:58:35.260Z,1.15
2023-01-20T16:01:02.483Z,1.30
2023-01-20T16:03:31.957Z,1.10
2023-01-20T16:05:59.130Z,1.33
2023-01-20T16:08:30.604Z,1.00
2023-01-20T16:10:57.743Z,1.30
2023-01-20T16:13:25.003Z,0.95
2023-01-20T16:15:52.317Z,1.10
2023-01-20T16:18:20.943Z,1.50
2023-01-20T16:20:49.715Z,1.20
2023-01-20T16:23:17.063Z,1.40
2023-01-20T16:25:44.264Z,0.90
2023-01-20T16:28:19.724Z,2.30
2023-01-20T16:30:46.928Z,40.55
2023-01-20T16:33:21.918Z,26.23
2023-01-20T16:35:51.048Z,17.60
2023-01-20T16:38:19.539Z,16.60
2023-01-20T16:40:48.702Z,12.50
2023-01-20T16:43:16.199Z,10.13
2023-01-20T16:45:43.459Z,11.82
2023-01-20T16:48:10.733Z,4.88
2023-01-20T16:50:37.905Z,2.72
2023-01-20T16:53:05.380Z,1.63
2023-01-20T16:55:32.729Z,1.50
2023-01-20T16:57:59.866Z,1.48
2023-01-20T17:00:27.017Z,3.17
2023-01-20T17:02:54.334Z,8.20
2023-01-20T17:05:25.835Z,6.38
2023-01-20T17:07:54.119Z,4.13
2023-01-20T17:10:21.495Z,3.22
2023-01-20T17:12:55.775Z,3.42
2023-01-20T17:15:23.434Z,1.25
2023-01-20T17:17:51.159Z,1.00
2023-01-20T17:20:19.147Z,1.20
2023-01-20T17:22:46.344Z,1.30
2023-01-20T17:25:15.072Z,1.50
2023-01-20T17:27:43.378Z,2.20
2023-01-20T17:30:10.853Z,1.58
2023-01-20T17:32:38.405Z,1.27
2023-01-20T17:35:05.734Z,1.38
2023-01-20T17:37:32.903Z,2.05
2023-01-20T17:40:00.387Z,1.70
2023-01-20T17:42:27.664Z,1.30
2023-01-20T17:44:58.369Z,1.60
2023-01-20T17:47:25.530Z,1.60
2023-01-20T17:49:52.727Z,1.35
2023-01-20T17:52:22.108Z,1.65
2023-01-20T17:54:49.801Z,1.45
2023-01-20T17:57:16.951Z,1.55
2023-01-20T17:59:44.100Z,1.70
2023-01-20T18:02:12.512Z,1.40
2023-01-20T18:04:39.886Z,1.42
2023-01-20T18:07:07.344Z,1.73
2023-01-20T18:09:35.097Z,3.17
2023-01-20T18:12:02.323Z,3.03
2023-01-20T18:14:29.529Z,1.50
2023-01-20T18:16:57.466Z,2.70
2023-01-20T18:19:24.778Z,1.70
2023-01-20T18:21:52.061Z,2.10
2023-01-20T18:24:19.358Z,2.20
2023-01-20T18:26:46.593Z,1.90
2023-01-20T18:29:15.371Z,2.33
2023-01-20T18:31:43.083Z,1.75
2023-01-20T18:34:12.026Z,1.63
2023-01-20T18:36:40.993Z,1.92
2023-01-20T18:39:09.434Z,2.72
2023-01-20T18:41:37.823Z,1.80
2023-01-20T18:44:05.722Z,3.20
2023-01-20T18:46:33.692Z,3.65
2023-01-20T18:49:01.116Z,2.90
2023-01-20T18:51:29.773Z,2.97
2023-01-20T18:53:58.422Z,2.20
2023-01-20T18:56:26.149Z,2.95
2023-01-20T18:58:53.910Z,4.30
2023-01-20T19:01:22.516Z,4.28
2023-01-20T19:03:50.284Z,2.97
2023-01-20T19:06:18.541Z,5.45
2023-01-20T19:08:48.233Z,4.57
2023-01-20T19:11:22.931Z,6.00
2023-01-20T19:13:51.040Z,5.47
2023-01-20T19:16:19.255Z,5.78
2023-01-20T19:18:50.641Z,2.65
2023-01-20T19:21:17.825Z,1.80
2023-01-20T19:23:48.445Z,1.80
2023-01-20T19:26:18.584Z,1.90
2023-01-20T19:28:46.599Z,2.22
2023-01-20T19:31:15.175Z,2.13
2023-01-20T19:33:42.526Z,2.10
2023-01-20T19:36:11.682Z,1.85
2023-01-20T19:38:38.935Z,2.53
2023-01-20T19:41:06.634Z,2.38
2023-01-20T19:43:34.345Z,2.20
2023-01-20T19:46:06.987Z,2.10
2023-01-20T19:48:34.476Z,1.83
2023-01-20T19:51:05.147Z,1.92
2023-01-20T19:53:32.880Z,2.92
2023-01-20T19:56:07.828Z,1.55
2023-01-20T19:58:35.106Z,1.60
2023-01-20T20:01:06.391Z,1.98
2023-01-20T20:03:33.689Z,2.75
2023-01-20T20:06:00.900Z,1.60
2023-01-20T20:08:28.140Z,1.98
2023-01-20T20:10:55.485Z,2.75
2023-01-20T20:13:22.880Z,2.30
2023-01-20T20:15:50.415Z,2.15
2023-01-20T20:18:17.627Z,2.30
2023-01-20T20:20:45.179Z,2.00
2023-01-20T20:23:12.396Z,3.33
2023-01-20T20:25:39.635Z,2.00
2023-01-20T20:28:06.837Z,2.13
2023-01-20T20:30:33.986Z,2.22
2023-01-20T20:33:01.749Z,2.05
2023-01-20T20:35:29.088Z,2.58
2023-01-20T20:37:56.241Z,1.63
2023-01-20T20:40:25.201Z,1.88
2023-01-20T20:42:52.431Z,2.20
2023-01-20T20:45:19.816Z,2.30
2023-01-20T20:47:47.048Z,2.13
2023-01-20T20:50:14.449Z,1.85
2023-01-20T20:52:41.770Z,1.95
2023-01-20T20:55:10.815Z,1.60
2023-01-20T20:57:39.386Z,2.08
2023-01-20T21:00:06.951Z,2.10
2023-01-20T21:02:34.605Z,2.22
2023-01-20T21:05:02.008Z,1.65
2023-01-20T21:07:29.223Z,1.63
2023-01-20T21:09:56.411Z,1.77
2023-01-20T21:12:23.564Z,2.33
2023-01-20T21:14:50.825Z,2.15
2023-01-20T21:17:18.125Z,1.67
2023-01-20T21:19:46.308Z,1.73
2023-01-20T21:22:14.190Z,1.70
2023-01-20T21:24:41.454Z,1.90
2023-01-20T21:27:08.651Z,1.40
2023-01-20T21:29:35.787Z,1.60
2023-01-20T21:32:02.961Z,1.83
2023-01-20T21:34:30.264Z,1.55
2023-01-20T21:36:58.675Z,1.98
2023-01-20T21:39:25.979Z,1.63
2023-01-20T21:41:53.136Z,1.80
2023-01-20T21:44:29.696Z,1.83
2023-01-20T21:46:57.715Z,2.35
2023-01-20T21:49:43.499Z,1.85
2023-01-20T21:52:33.410Z,1.30
2023-01-20T21:55:00.778Z,1.70
2023-01-20T21:57:29.198Z,1.65
2023-01-20T21:59:56.864Z,2.47
2023-01-20T22:02:24.094Z,1.52
2023-01-20T22:04:51.446Z,1.20
2023-01-20T22:07:18.708Z,1.45
2023-01-20T22:09:45.960Z,1.50
2023-01-20T22:12:13.193Z,1.50
2023-01-20T22:14:40.991Z,1.60
2023-01-20T22:17:09.232Z,1.77
2023-01-20T22:19:36.795Z,1.50
2023-01-20T22:22:04.311Z,1.00
2023-01-20T22:24:31.687Z,1.42
2023-01-20T22:26:58.918Z,1.38
2023-01-20T22:29:26.200Z,1.77
2023-01-20T22:31:53.840Z,1.50
2023-01-20T22:34:21.559Z,1.35
2023-01-20T22:36:48.716Z,1.50
2023-01-20T22:39:16.121Z,1.48
2023-01-20T22:41:43.407Z,1.23
2023-01-20T22:44:10.682Z,1.02
2023-01-20T22:46:37.925Z,1.10
2023-01-20T22:49:05.125Z,1.00
2023-01-20T22:51:32.621Z,1.90
2023-01-20T22:54:01.019Z,1.65
2023-01-20T22:56:29.364Z,1.40
2023-01-20T22:58:56.976Z,1.70
2023-01-20T23:01:25.933Z,1.00
2023-01-20T23:04:00.195Z,1.98
2023-01-20T23:06:28.317Z,1.33
2023-01-20T23:08:55.445Z,1.85
2023-01-20T23:11:23.612Z,1.17
2023-01-20T23:13:51.322Z,1.30
2023-01-20T23:16:22.241Z,1.50
2023-01-20T23:18:50.311Z,2.00
2023-01-20T23:21:17.683Z,1.67
2023-01-20T23:23:44.938Z,1.70
2023-01-20T23:26:12.119Z,1.67
2023-01-20T23:28:39.291Z,1.63
2023-01-20T23:31:07.928Z,1.92
2023-01-20T23:33:35.594Z,1.95
2023-01-20T23:36:06.088Z,2.45
2023-01-20T23:38:33.463Z,1.75
2023-01-20T23:41:01.089Z,1.50
2023-01-20T23:43:28.246Z,2.03
2023-01-20T23:46:02.969Z,2.00
2023-01-20T23:48:30.315Z,2.20
2023-01-20T23:50:59.791Z,2.15
2023-01-20T23:53:28.019Z,1.50
2023-01-20T23:56:08.668Z,3.05
2023-01-20T23:58:35.897Z,1.75
